createdAt,value
2022-11-14T00:00:29.250Z,11.26
2022-11-14T00:03:16.698Z,11.25
2022-11-14T00:06:08.234Z,11.24
2022-11-14T00:08:55.071Z,11.25
2022-11-14T00:11:42.371Z,11.24
2022-11-14T00:14:29.425Z,11.21
2022-11-14T00:17:17.007Z,11.21
2022-11-14T00:20:06.298Z,11.27
2022-11-14T00:22:53.308Z,11.28
2022-11-14T00:25:40.263Z,11.28
2022-11-14T00:28:27.621Z,11.29
2022-11-14T00:31:14.921Z,11.34
2022-11-14T00:34:01.869Z,11.36
2022-11-14T00:36:48.710Z,11.32
2022-11-14T00:39:35.563Z,11.28
2022-11-14T00:42:22.662Z,11.27
2022-11-14T00:45:10.052Z,11.25
2022-11-14T00:47:57.337Z,11.29
2022-11-14T00:50:44.526Z,11.30
2022-11-14T00:53:31.618Z,11.29
2022-11-14T00:56:18.885Z,11.28
2022-11-14T00:59:06.159Z,11.22
2022-11-14T01:01:57.717Z,11.20
2022-11-14T01:04:45.551Z,11.16
2022-11-14T01:07:32.520Z,11.14
2022-11-14T01:10:19.641Z,11.12
2022-11-14T01:13:06.477Z,11.12
2022-11-14T01:15:55.014Z,11.12
2022-11-14T01:18:41.997Z,11.13
2022-11-14T01:21:28.825Z,11.16
2022-11-14T01:24:15.939Z,11.19
2022-11-14T01:27:03.230Z,11.20
2022-11-14T01:29:50.909Z,11.19
2022-11-14T01:32:38.311Z,11.13
2022-11-14T01:35:25.354Z,11.11
2022-11-14T01:38:14.888Z,11.10
2022-11-14T01:41:02.303Z,11.06
2022-11-14T01:43:50.036Z,11.00
2022-11-14T01:46:40.936Z,10.95
2022-11-14T01:49:43.900Z,10.95
2022-11-14T01:52:40.723Z,10.95
2022-11-14T01:55:27.463Z,10.97
2022-11-14T01:58:16.690Z,10.96
2022-11-14T02:01:03.780Z,10.94
2022-11-14T02:03:53.185Z,10.94
2022-11-14T02:06:40.744Z,10.94
2022-11-14T02:09:31.374Z,10.93
2022-11-14T02:12:19.731Z,10.90
2022-11-14T02:15:07.162Z,10.87
2022-11-14T02:17:54.268Z,10.82
2022-11-14T02:20:43.486Z,10.79
2022-11-14T02:23:32.755Z,10.79
2022-11-14T02:26:21.560Z,10.79
2022-11-14T02:29:11.501Z,10.81
2022-11-14T02:31:58.549Z,10.79
2022-11-14T02:34:45.214Z,10.76
2022-11-14T02:37:32.067Z,10.75
2022-11-14T02:40:18.970Z,10.76
2022-11-14T02:43:06.097Z,10.75
2022-11-14T02:45:53.270Z,10.74
2022-11-14T02:48:40.141Z,10.73
2022-11-14T02:51:26.964Z,10.70
2022-11-14T02:54:13.714Z,10.68
2022-11-14T02:57:00.897Z,10.66
2022-11-14T02:59:47.588Z,10.62
2022-11-14T03:02:34.955Z,10.60
2022-11-14T03:05:22.119Z,10.58
2022-11-14T03:08:08.771Z,10.54
2022-11-14T03:10:55.484Z,10.52
2022-11-14T03:13:42.563Z,10.56
2022-11-14T03:16:29.342Z,10.58
2022-11-14T03:19:16.200Z,10.61
2022-11-14T03:22:03.647Z,10.65
2022-11-14T03:24:50.494Z,10.66
2022-11-14T03:27:37.632Z,10.64
2022-11-14T03:30:24.709Z,10.60
2022-11-14T03:33:11.816Z,10.57
2022-11-14T03:35:58.865Z,10.54
2022-11-14T03:38:45.693Z,10.53
2022-11-14T03:41:32.701Z,10.49
2022-11-14T03:44:19.577Z,10.45
2022-11-14T03:47:06.803Z,10.46
2022-11-14T03:49:53.879Z,10.46
2022-11-14T03:52:41.243Z,10.48
2022-11-14T03:55:28.323Z,10.49
2022-11-14T03:58:15.216Z,10.50
2022-11-14T04:01:03.991Z,10.49
2022-11-14T04:03:51.293Z,10.48
2022-11-14T04:06:38.768Z,10.48
2022-11-14T04:09:25.873Z,10.45
2022-11-14T04:12:15.909Z,10.44
2022-11-14T04:15:03.310Z,10.44
2022-11-14T04:17:51.416Z,10.45
2022-11-14T04:20:38.472Z,10.45
2022-11-14T04:23:25.695Z,10.41
2022-11-14T04:26:12.774Z,10.40
2022-11-14T04:29:00.007Z,10.38
2022-11-14T04:31:46.700Z,10.30
2022-11-14T04:34:34.283Z,10.25
2022-11-14T04:37:20.820Z,10.24
2022-11-14T04:40:09.023Z,10.28
2022-11-14T04:42:56.132Z,10.31
2022-11-14T04:45:43.505Z,10.32
2022-11-14T04:48:30.908Z,10.32
2022-11-14T04:51:19.007Z,10.27
2022-11-14T04:54:05.973Z,10.22
2022-11-14T04:56:53.349Z,10.23
2022-11-14T04:59:40.054Z,10.22
2022-11-14T05:02:27.309Z,10.15
2022-11-14T05:05:14.111Z,10.08
2022-11-14T05:08:01.536Z,10.07
2022-11-14T05:10:48.774Z,10.07
2022-11-14T05:13:35.823Z,10.03
2022-11-14T05:16:22.727Z,10.03
